Terminal Aerodrome Forecast
Issued by NWS Cleveland, OH

Home | Current Version | Previous Version | Text Only | Print | Product List | Glossary Off
Versions: 1 2 3 4 5 6 7 8 9 10 11 12 13 14 15 16 17 18 19 20 21 22 23 24

490
FTUS41 KCLE 181145
TAFCLE
TAF
KCLE 181145Z 1812/1918 25008KT P6SM BKN025 BKN035
     FM181600 21008KT P6SM SCT250
     FM182000 18008KT P6SM BKN250
     FM190900 18010KT P6SM OVC100=

USA.gov is the U.S. government's official web portal to all federal, state and local government web resources and services.